< < Back
Terminal Aerodrome Forecast


Current Version              Previous Versions:   1  2  3  4  5  6  7  8  9  

Terminal Aerodrome Forecast

254
FTUS42 KFFC 051127
TAFCSG
TAF
KCSG 051127Z 0512/0612 21008KT 6SM -RA SCT006 BKN012
     FM051300 22010G20KT 6SM -RA BKN005 OVC012
     FM051700 30010G20KT 6SM -RA OVC008
     FM052000 34010G15KT P6SM OVC010
     FM060200 35010KT P6SM OVC025
     FM060900 36009KT P6SM BKN045=

Latest METAR

112
SAUS70 KWBC 060400
MTRCSG
METAR KCSG 060351Z AUTO VRB06G15KT 10SM CLR 02/M03 A3033 RMK AO2 SLP268
T00221028


USA.gov is the U.S. government's official web portal to all federal, state and local government web resources and services.